createdAt,value
2023-02-17T00:00:20.766Z,69.00
2023-02-17T00:03:16.174Z,68.99
2023-02-17T00:05:51.093Z,68.95
2023-02-17T00:08:24.758Z,69.01
2023-02-17T00:11:02.407Z,68.96
2023-02-17T00:13:35.871Z,69.00
2023-02-17T00:16:14.705Z,69.15
2023-02-17T00:18:48.518Z,69.03
2023-02-17T00:21:24.084Z,69.01
2023-02-17T00:23:58.801Z,68.83
2023-02-17T00:26:42.849Z,68.83
2023-02-17T00:29:17.009Z,68.83
2023-02-17T00:31:51.452Z,68.78
2023-02-17T00:34:25.400Z,68.78
2023-02-17T00:36:59.163Z,68.87
2023-02-17T00:39:35.462Z,68.93
2023-02-17T00:42:09.416Z,68.85
2023-02-17T00:44:52.662Z,68.80
2023-02-17T00:47:27.561Z,68.75
2023-02-17T00:50:02.086Z,68.83
2023-02-17T00:52:56.249Z,68.86
2023-02-17T00:55:29.836Z,68.76
2023-02-17T00:58:03.496Z,68.85
2023-02-17T01:00:37.401Z,68.89
2023-02-17T01:03:14.096Z,68.97
2023-02-17T01:05:51.548Z,68.80
2023-02-17T01:08:25.743Z,68.84
2023-02-17T01:10:59.552Z,68.90
2023-02-17T01:13:33.449Z,68.78
2023-02-17T01:16:08.308Z,68.85
2023-02-17T01:18:42.387Z,68.86
2023-02-17T01:21:28.642Z,68.72
2023-02-17T01:24:07.047Z,68.68
2023-02-17T01:26:44.910Z,68.68
2023-02-17T01:29:22.142Z,68.70
2023-02-17T01:32:08.023Z,68.58
2023-02-17T01:34:42.424Z,68.55
2023-02-17T01:37:37.367Z,68.43
2023-02-17T01:40:15.818Z,68.38
2023-02-17T01:42:53.582Z,68.35
2023-02-17T01:45:52.757Z,68.44
2023-02-17T01:48:27.050Z,68.29
2023-02-17T01:51:06.767Z,68.13
2023-02-17T01:53:45.561Z,68.16
2023-02-17T01:56:31.869Z,68.27
2023-02-17T01:59:09.811Z,68.36
2023-02-17T02:01:47.247Z,68.29
2023-02-17T02:04:25.022Z,68.32
2023-02-17T02:06:59.952Z,68.31
2023-02-17T02:09:38.685Z,68.29
2023-02-17T02:12:25.474Z,68.31
2023-02-17T02:15:01.663Z,68.16
2023-02-17T02:17:44.621Z,68.10
2023-02-17T02:20:55.578Z,68.05
2023-02-17T02:23:56.042Z,68.10
2023-02-17T02:27:11.020Z,68.10
2023-02-17T02:30:36.294Z,68.12
2023-02-17T02:33:16.861Z,68.31
2023-02-17T02:36:00.880Z,68.24
2023-02-17T02:39:00.959Z,68.28
2023-02-17T02:41:41.556Z,68.38
2023-02-17T02:44:20.276Z,68.36
2023-02-17T02:47:07.179Z,68.33
2023-02-17T02:49:41.646Z,68.31
2023-02-17T02:52:24.723Z,68.29
2023-02-17T02:55:27.494Z,68.17
2023-02-17T02:58:12.408Z,67.99
2023-02-17T03:00:56.996Z,68.10
2023-02-17T03:04:02.025Z,68.13
2023-02-17T03:06:46.355Z,68.28
2023-02-17T03:09:41.457Z,68.19
2023-02-17T03:12:15.655Z,68.15
2023-02-17T03:14:52.199Z,68.11
2023-02-17T03:17:25.850Z,68.17
2023-02-17T03:19:59.929Z,68.27
2023-02-17T03:22:37.126Z,68.46
2023-02-17T03:25:11.968Z,68.35
2023-02-17T03:27:55.584Z,68.35
2023-02-17T03:30:32.219Z,68.46
2023-02-17T03:33:06.561Z,68.50
2023-02-17T03:35:40.864Z,68.52
2023-02-17T03:38:14.880Z,68.62
2023-02-17T03:40:58.721Z,68.61
2023-02-17T03:43:32.309Z,68.52
2023-02-17T03:46:06.372Z,68.73
2023-02-17T03:48:40.082Z,68.90
2023-02-17T03:51:19.565Z,68.90
2023-02-17T03:53:56.134Z,69.16
2023-02-17T03:56:30.366Z,69.46
2023-02-17T03:59:04.402Z,69.57
2023-02-17T04:01:38.439Z,69.72
2023-02-17T04:04:32.671Z,69.64
2023-02-17T04:07:06.314Z,69.97
2023-02-17T04:09:40.931Z,70.06
2023-02-17T04:12:14.723Z,70.17
2023-02-17T04:14:48.696Z,70.28
2023-02-17T04:17:24.960Z,70.33
2023-02-17T04:19:59.090Z,70.16
2023-02-17T04:22:33.075Z,70.21
2023-02-17T04:25:08.202Z,70.27
2023-02-17T04:27:44.309Z,70.55
2023-02-17T04:30:19.400Z,70.85
2023-02-17T04:32:53.343Z,70.80
2023-02-17T04:35:27.838Z,70.84
2023-02-17T04:38:01.406Z,70.96
2023-02-17T04:40:35.394Z,71.04
2023-02-17T04:43:30.370Z,71.10
2023-02-17T04:46:04.920Z,71.16
2023-02-17T04:48:42.321Z,71.21
2023-02-17T04:51:16.344Z,71.50
2023-02-17T04:53:50.043Z,71.70
2023-02-17T04:56:23.908Z,71.81
2023-02-17T04:59:17.879Z,71.87
2023-02-17T05:01:51.816Z,71.87
2023-02-17T05:04:35.932Z,71.92
2023-02-17T05:07:13.798Z,72.03
2023-02-17T05:09:47.707Z,72.11
2023-02-17T05:12:21.064Z,72.14
2023-02-17T05:15:05.788Z,72.36
2023-02-17T05:17:39.535Z,72.60
2023-02-17T05:20:15.076Z,72.57
2023-02-17T05:22:58.687Z,72.71
2023-02-17T05:25:33.119Z,72.83
2023-02-17T05:28:07.280Z,72.73
2023-02-17T05:31:02.078Z,72.84
2023-02-17T05:33:36.592Z,72.98
2023-02-17T05:36:13.160Z,73.06
2023-02-17T05:38:56.706Z,72.98
2023-02-17T05:41:30.661Z,72.91
2023-02-17T05:44:08.014Z,72.81
2023-02-17T05:46:41.771Z,72.67
2023-02-17T05:49:16.271Z,72.76
2023-02-17T05:51:50.352Z,72.71
2023-02-17T05:54:24.129Z,72.54
2023-02-17T05:56:58.058Z,72.54
2023-02-17T05:59:32.171Z,72.56
2023-02-17T06:02:06.771Z,72.57
2023-02-17T06:04:40.765Z,72.66
2023-02-17T06:07:14.335Z,72.74
2023-02-17T06:09:48.033Z,72.83
2023-02-17T06:12:21.875Z,72.96
2023-02-17T06:14:55.990Z,72.97
2023-02-17T06:17:29.670Z,73.12
2023-02-17T06:20:03.856Z,73.16
2023-02-17T06:22:37.653Z,73.20
2023-02-17T06:25:13.932Z,73.24
2023-02-17T06:27:47.805Z,73.14
2023-02-17T06:30:22.006Z,73.25
2023-02-17T06:32:55.974Z,73.28
2023-02-17T06:35:30.061Z,73.41
2023-02-17T06:38:04.313Z,73.35
2023-02-17T06:40:38.253Z,73.35
2023-02-17T06:43:12.313Z,73.39
2023-02-17T06:45:48.961Z,73.39
2023-02-17T06:48:22.723Z,73.39
2023-02-17T06:50:56.692Z,73.35
2023-02-17T06:53:51.086Z,73.17
2023-02-17T06:56:24.763Z,73.19
2023-02-17T06:58:58.771Z,73.17
2023-02-17T07:01:32.254Z,73.09
2023-02-17T07:04:06.028Z,72.95
2023-02-17T07:06:43.255Z,72.89
2023-02-17T07:09:17.289Z,72.90
2023-02-17T07:11:51.441Z,72.89
2023-02-17T07:14:25.145Z,72.85
2023-02-17T07:17:09.866Z,72.72
2023-02-17T07:19:43.888Z,72.59
2023-02-17T07:22:17.626Z,72.49
2023-02-17T07:24:52.215Z,72.26
2023-02-17T07:27:26.093Z,72.18
2023-02-17T07:30:12.989Z,72.05
2023-02-17T07:32:46.839Z,71.63
2023-02-17T07:35:23.488Z,71.65
2023-02-17T07:37:58.398Z,71.55
2023-02-17T07:40:32.431Z,71.05
2023-02-17T07:43:09.356Z,70.70
2023-02-17T07:45:46.120Z,70.44
2023-02-17T07:48:23.638Z,70.38
2023-02-17T07:50:58.293Z,70.49
2023-02-17T07:53:42.205Z,70.60
2023-02-17T07:56:16.959Z,70.27
2023-02-17T07:59:01.124Z,69.92
2023-02-17T08:01:34.690Z,70.03
2023-02-17T08:04:08.522Z,70.05
2023-02-17T08:06:42.664Z,69.84
2023-02-17T08:09:33.754Z,69.74
2023-02-17T08:12:36.948Z,69.52
2023-02-17T08:15:12.659Z,69.52
2023-02-17T08:17:51.061Z,69.20
2023-02-17T08:20:27.793Z,69.13
2023-02-17T08:23:01.382Z,69.14
2023-02-17T08:25:37.299Z,69.02
2023-02-17T08:28:13.054Z,68.87
2023-02-17T08:30:49.658Z,68.46
2023-02-17T08:33:23.205Z,68.74
2023-02-17T08:35:56.610Z,68.66
2023-02-17T08:38:30.243Z,68.23
2023-02-17T08:41:04.155Z,68.34
2023-02-17T08:43:37.796Z,68.07
2023-02-17T08:46:13.082Z,67.68
2023-02-17T08:48:58.215Z,68.12
2023-02-17T08:51:43.229Z,68.17
2023-02-17T08:54:17.198Z,67.95
2023-02-17T08:57:11.156Z,67.49
2023-02-17T08:59:56.353Z,67.21
2023-02-17T09:02:29.761Z,67.24
2023-02-17T09:05:04.075Z,67.37
2023-02-17T09:07:40.449Z,67.45
2023-02-17T09:10:17.620Z,67.59
2023-02-17T09:12:52.308Z,67.99
2023-02-17T09:15:26.049Z,68.05
2023-02-17T09:17:59.717Z,67.99
2023-02-17T09:20:41.175Z,68.46
2023-02-17T09:23:14.750Z,68.20
2023-02-17T09:26:24.507Z,68.33
2023-02-17T09:28:58.542Z,68.21
2023-02-17T09:31:32.566Z,68.31
2023-02-17T09:34:06.956Z,68.43
2023-02-17T09:36:42.799Z,68.42
2023-02-17T09:39:18.950Z,68.54
2023-02-17T09:41:55.570Z,68.68
2023-02-17T09:44:35.876Z,68.59
2023-02-17T09:47:23.431Z,68.69
2023-02-17T09:50:02.358Z,68.71
2023-02-17T09:52:40.523Z,68.81
2023-02-17T09:55:18.359Z,68.73
2023-02-17T09:57:59.093Z,68.82
2023-02-17T10:00:35.798Z,68.66
2023-02-17T10:03:17.909Z,68.84
2023-02-17T10:06:01.877Z,68.93
2023-02-17T10:08:42.567Z,68.94
2023-02-17T10:11:23.684Z,69.23
2023-02-17T10:14:00.459Z,69.19
2023-02-17T10:16:38.155Z,69.48
2023-02-17T10:19:17.889Z,69.73
2023-02-17T10:21:59.109Z,69.89
2023-02-17T10:24:32.697Z,69.93
2023-02-17T10:27:24.087Z,69.99
2023-02-17T10:30:12.518Z,70.28
2023-02-17T10:33:00.838Z,70.49
2023-02-17T10:35:53.031Z,70.72
2023-02-17T10:38:48.726Z,70.91
2023-02-17T10:41:27.508Z,70.87
2023-02-17T10:44:15.550Z,70.99
2023-02-17T10:46:48.903Z,71.10
2023-02-17T10:49:28.678Z,71.34
2023-02-17T10:52:05.040Z,71.49
2023-02-17T10:54:45.868Z,71.43
2023-02-17T10:57:21.700Z,71.48
2023-02-17T10:59:55.871Z,71.50
2023-02-17T11:02:38.528Z,71.51
2023-02-17T11:05:21.894Z,71.56
2023-02-17T11:07:59.749Z,71.70
2023-02-17T11:10:36.584Z,71.84
2023-02-17T11:13:32.593Z,71.91
2023-02-17T11:16:07.150Z,72.26
2023-02-17T11:18:49.233Z,72.69
2023-02-17T11:21:23.466Z,72.83
2023-02-17T11:24:02.432Z,72.82
2023-02-17T11:26:35.637Z,72.74
2023-02-17T11:29:18.038Z,72.81
2023-02-17T11:32:05.393Z,72.78
2023-02-17T11:34:44.531Z,72.64
2023-02-17T11:37:27.364Z,72.87
2023-02-17T11:40:27.371Z,72.82
2023-02-17T11:43:03.639Z,72.52
2023-02-17T11:45:44.727Z,72.46
2023-02-17T11:48:44.314Z,72.57
2023-02-17T11:51:24.880Z,72.70
2023-02-17T11:54:07.168Z,72.91
2023-02-17T11:56:43.733Z,72.81
2023-02-17T11:59:53.753Z,72.95
2023-02-17T12:02:46.468Z,73.18
2023-02-17T12:05:27.754Z,73.25
2023-02-17T12:08:13.079Z,73.41
2023-02-17T12:11:09.938Z,73.55
2023-02-17T12:13:57.812Z,73.72
2023-02-17T12:16:50.725Z,73.69
2023-02-17T12:19:47.520Z,73.62
2023-02-17T12:22:37.723Z,73.61
2023-02-17T12:25:29.346Z,73.50
2023-02-17T12:28:34.514Z,73.57
2023-02-17T12:31:20.787Z,73.62
2023-02-17T12:34:11.639Z,73.79
2023-02-17T12:36:58.056Z,73.86
2023-02-17T12:39:43.395Z,73.81
2023-02-17T12:42:32.600Z,74.10
2023-02-17T12:45:17.860Z,74.25
2023-02-17T12:47:59.879Z,74.44
2023-02-17T12:50:39.150Z,74.52
2023-02-17T12:53:21.956Z,74.48
2023-02-17T12:55:59.550Z,74.58
2023-02-17T12:58:44.815Z,74.77
2023-02-17T13:01:22.162Z,74.93
2023-02-17T13:03:56.637Z,74.86
2023-02-17T13:06:38.741Z,74.83
2023-02-17T13:09:26.442Z,74.95
2023-02-17T13:12:12.135Z,75.31
2023-02-17T13:14:47.681Z,75.50
2023-02-17T13:17:30.400Z,75.49
2023-02-17T13:23:28.316Z,75.64
2023-02-17T13:26:31.581Z,75.72
2023-02-17T13:29:37.540Z,75.99
2023-02-17T13:32:14.954Z,76.21
2023-02-17T13:35:00.749Z,76.63
2023-02-17T13:37:45.080Z,76.81
2023-02-17T13:40:39.562Z,77.20
2023-02-17T13:43:24.496Z,77.37
2023-02-17T13:46:03.192Z,77.68
2023-02-17T13:48:37.767Z,77.92
2023-02-17T13:51:29.371Z,78.03
2023-02-17T13:54:10.099Z,78.13
2023-02-17T13:56:43.672Z,78.40
2023-02-17T13:59:25.622Z,78.33
2023-02-17T14:02:00.587Z,78.38
2023-02-17T14:04:35.356Z,78.35
2023-02-17T14:07:10.248Z,78.32
2023-02-17T14:09:54.513Z,78.40
2023-02-17T14:12:28.920Z,78.52
2023-02-17T14:15:03.090Z,78.54
2023-02-17T14:17:38.439Z,78.82
2023-02-17T14:20:33.414Z,78.82
2023-02-17T14:23:12.758Z,78.94
2023-02-17T14:25:47.398Z,79.15
2023-02-17T14:28:26.098Z,79.19
2023-02-17T14:31:10.653Z,79.29
2023-02-17T14:33:57.091Z,79.40
2023-02-17T14:36:34.307Z,79.47
2023-02-17T14:39:10.924Z,79.48
2023-02-17T14:41:45.897Z,79.64
2023-02-17T14:44:20.459Z,79.54
2023-02-17T14:46:55.718Z,79.52
2023-02-17T14:49:30.715Z,79.76
2023-02-17T14:52:23.652Z,79.61
2023-02-17T14:55:00.750Z,79.45
2023-02-17T14:57:34.932Z,79.56
2023-02-17T15:00:16.218Z,79.71
2023-02-17T15:02:51.687Z,79.81
2023-02-17T15:05:27.497Z,80.22
2023-02-17T15:08:04.896Z,81.89
2023-02-17T15:10:40.506Z,83.19
2023-02-17T15:13:19.621Z,84.07
2023-02-17T15:15:53.753Z,84.70
2023-02-17T15:18:28.588Z,84.94
2023-02-17T15:21:02.867Z,85.22
2023-02-17T15:23:45.831Z,85.52
2023-02-17T15:26:20.860Z,85.84
2023-02-17T15:28:59.598Z,86.36
2023-02-17T15:31:36.612Z,86.71
2023-02-17T15:34:16.892Z,86.82
2023-02-17T15:36:54.445Z,87.15
2023-02-17T15:39:31.787Z,87.52
2023-02-17T15:42:14.573Z,87.68
2023-02-17T15:44:51.557Z,87.97
2023-02-17T15:47:25.492Z,88.19
2023-02-17T15:50:00.997Z,88.26
2023-02-17T15:52:39.499Z,88.56
2023-02-17T15:55:12.585Z,88.78
2023-02-17T15:57:51.217Z,89.03
2023-02-17T16:00:28.388Z,89.40
2023-02-17T16:03:07.259Z,89.35
2023-02-17T16:05:43.859Z,89.66
2023-02-17T16:08:18.308Z,89.79
2023-02-17T16:10:54.658Z,89.73
2023-02-17T16:13:31.275Z,89.96
2023-02-17T16:16:10.932Z,90.03
2023-02-17T16:18:44.806Z,90.11
2023-02-17T16:21:19.557Z,90.28
2023-02-17T16:23:59.681Z,90.43
2023-02-17T16:26:38.217Z,90.50
2023-02-17T16:29:19.194Z,90.89
2023-02-17T16:31:56.340Z,91.07
2023-02-17T16:34:43.236Z,91.09
2023-02-17T16:37:21.681Z,91.60
2023-02-17T16:39:54.720Z,91.67
2023-02-17T16:42:29.861Z,91.70
2023-02-17T16:45:06.003Z,91.57
2023-02-17T16:47:50.096Z,91.97
2023-02-17T16:50:27.082Z,91.94
2023-02-17T16:53:14.720Z,91.82
2023-02-17T16:55:52.008Z,91.70
2023-02-17T16:58:32.334Z,91.92
2023-02-17T17:01:13.110Z,91.95
2023-02-17T17:03:49.248Z,92.09
2023-02-17T17:06:30.078Z,92.41
2023-02-17T17:09:05.756Z,92.71
2023-02-17T17:11:41.148Z,92.61
2023-02-17T17:14:21.432Z,92.66
2023-02-17T17:17:10.019Z,92.55
2023-02-17T17:19:52.068Z,92.67
2023-02-17T17:22:38.711Z,92.91
2023-02-17T17:25:21.789Z,92.76
2023-02-17T17:27:58.781Z,92.99
2023-02-17T17:30:48.827Z,92.89
2023-02-17T17:33:26.623Z,92.98
2023-02-17T17:36:04.216Z,93.14
2023-02-17T17:38:41.271Z,93.00
2023-02-17T17:41:21.434Z,93.40
2023-02-17T17:43:58.343Z,93.22
2023-02-17T17:46:42.070Z,93.39
2023-02-17T17:49:26.158Z,93.53
2023-02-17T17:52:03.346Z,93.46
2023-02-17T17:54:39.461Z,93.53
2023-02-17T17:57:18.028Z,93.69
2023-02-17T17:59:55.880Z,93.76
2023-02-17T18:02:33.749Z,93.85
2023-02-17T18:05:13.235Z,94.01
2023-02-17T18:07:55.314Z,94.06
2023-02-17T18:10:31.760Z,94.35
2023-02-17T18:13:07.728Z,94.56
2023-02-17T18:15:44.865Z,94.61
2023-02-17T18:18:21.733Z,94.69
2023-02-17T18:20:59.594Z,94.74
2023-02-17T18:23:37.620Z,94.78
2023-02-17T18:26:14.542Z,94.79
2023-02-17T18:28:51.290Z,94.85
2023-02-17T18:31:30.386Z,94.76
2023-02-17T18:34:08.984Z,94.65
2023-02-17T18:36:48.588Z,94.68
2023-02-17T18:39:26.553Z,94.66
2023-02-17T18:42:05.026Z,94.77
2023-02-17T18:44:42.699Z,94.68
2023-02-17T18:47:20.946Z,94.71
2023-02-17T18:50:20.670Z,94.72
2023-02-17T18:52:57.855Z,94.87
2023-02-17T18:55:37.263Z,95.07
2023-02-17T18:58:13.477Z,95.01
2023-02-17T19:00:55.202Z,94.85
2023-02-17T19:03:39.004Z,94.81
2023-02-17T19:06:34.420Z,94.87
2023-02-17T19:09:13.110Z,94.94
2023-02-17T19:11:56.834Z,94.95
2023-02-17T19:14:36.414Z,95.01
2023-02-17T19:17:24.474Z,95.00
2023-02-17T19:20:15.633Z,95.07
2023-02-17T19:22:52.507Z,94.99
2023-02-17T19:25:30.745Z,94.97
2023-02-17T19:28:07.229Z,95.14
2023-02-17T19:30:45.923Z,95.27
2023-02-17T19:33:22.455Z,95.33
2023-02-17T19:36:02.815Z,95.34
2023-02-17T19:38:41.734Z,95.55
2023-02-17T19:41:37.141Z,95.59
2023-02-17T19:44:21.780Z,95.75
2023-02-17T19:47:08.278Z,95.71
2023-02-17T19:49:49.719Z,95.57
2023-02-17T19:52:31.274Z,95.63
2023-02-17T19:55:11.193Z,95.81
2023-02-17T19:57:56.752Z,95.76
2023-02-17T20:00:42.472Z,95.69
2023-02-17T20:03:24.780Z,95.80
2023-02-17T20:06:11.512Z,96.03
2023-02-17T20:08:50.794Z,96.05
2023-02-17T20:11:47.147Z,95.98
2023-02-17T20:14:55.931Z,96.01
2023-02-17T20:17:33.983Z,95.98
2023-02-17T20:20:21.054Z,96.02
2023-02-17T20:22:58.030Z,96.01
2023-02-17T20:25:34.626Z,95.79
2023-02-17T20:28:12.103Z,95.96
2023-02-17T20:30:52.688Z,95.96
2023-02-17T20:33:39.211Z,95.89
2023-02-17T20:36:19.293Z,96.03
2023-02-17T20:38:56.003Z,95.92
2023-02-17T20:41:35.578Z,95.76
2023-02-17T20:44:13.388Z,95.75
2023-02-17T20:46:50.391Z,95.75
2023-02-17T20:49:29.658Z,95.66
2023-02-17T20:52:06.544Z,95.62
2023-02-17T20:54:59.633Z,95.51
2023-02-17T20:57:36.420Z,95.33
2023-02-17T21:00:24.880Z,95.14
2023-02-17T21:03:03.347Z,94.95
2023-02-17T21:05:53.307Z,95.25
2023-02-17T21:08:33.396Z,95.45
2023-02-17T21:11:14.015Z,95.27
2023-02-17T21:13:51.467Z,95.06
2023-02-17T21:16:31.400Z,95.32
2023-02-17T21:19:10.773Z,95.48
2023-02-17T21:21:47.925Z,95.53
2023-02-17T21:24:27.112Z,95.62
2023-02-17T21:27:02.402Z,95.55
2023-02-17T21:29:44.154Z,95.53
2023-02-17T21:32:21.978Z,95.45
2023-02-17T21:34:58.025Z,95.33
2023-02-17T21:37:35.288Z,95.31
2023-02-17T21:40:13.582Z,95.08
2023-02-17T21:43:05.106Z,95.05
2023-02-17T21:45:45.533Z,95.00
2023-02-17T21:48:19.347Z,94.79
2023-02-17T21:51:09.648Z,94.71
2023-02-17T21:53:46.236Z,94.72
2023-02-17T21:56:21.177Z,94.65
2023-02-17T21:58:59.354Z,94.63
2023-02-17T22:01:34.568Z,94.58
2023-02-17T22:04:17.435Z,94.58
2023-02-17T22:06:52.497Z,94.60
2023-02-17T22:09:26.309Z,94.56
2023-02-17T22:11:59.792Z,94.07
2023-02-17T22:14:33.755Z,93.56
2023-02-17T22:17:07.814Z,93.31
2023-02-17T22:19:41.291Z,93.40
2023-02-17T22:22:17.676Z,93.60
2023-02-17T22:24:51.219Z,93.78
2023-02-17T22:27:36.931Z,93.87
2023-02-17T22:30:14.329Z,93.76
2023-02-17T22:32:50.558Z,93.48
2023-02-17T22:35:24.061Z,93.31
2023-02-17T22:38:00.377Z,93.13
2023-02-17T22:40:34.404Z,92.96
2023-02-17T22:43:10.195Z,93.06
2023-02-17T22:45:43.842Z,93.29
2023-02-17T22:48:17.304Z,93.64
2023-02-17T22:50:51.243Z,93.83
2023-02-17T22:53:25.165Z,93.82
2023-02-17T22:56:00.097Z,93.89
2023-02-17T22:58:38.107Z,94.10
2023-02-17T23:01:14.052Z,94.23
2023-02-17T23:03:53.702Z,93.77
2023-02-17T23:06:33.044Z,93.43
2023-02-17T23:09:18.922Z,93.32
2023-02-17T23:11:55.856Z,93.49
2023-02-17T23:14:33.260Z,93.30
2023-02-17T23:17:11.925Z,93.07
2023-02-17T23:19:45.485Z,92.82
2023-02-17T23:22:20.427Z,92.49
2023-02-17T23:24:54.137Z,91.87
2023-02-17T23:27:30.761Z,91.57
2023-02-17T23:30:04.287Z,91.33
2023-02-17T23:32:41.002Z,91.10
2023-02-17T23:35:18.063Z,91.02
2023-02-17T23:37:52.930Z,91.55
2023-02-17T23:40:30.799Z,92.01
2023-02-17T23:43:05.680Z,92.41
2023-02-17T23:45:41.290Z,92.36
2023-02-17T23:48:14.917Z,91.58
2023-02-17T23:50:56.774Z,91.45
2023-02-17T23:53:30.731Z,91.49
2023-02-17T23:56:10.602Z,90.44
2023-02-17T23:58:47.894Z,87.61
